sensor_id;sensor_type;location;lat;lon;timestamp;P1;durP1;ratioP1;P2;durP2;ratioP2
21886;SDS011;11108;49.988;8.182;2022-08-19T00:00:37;11.83;;;10.83;;
21886;SDS011;11108;49.988;8.182;2022-08-19T00:03:03;11.57;;;10.57;;
21886;SDS011;11108;49.988;8.182;2022-08-19T00:05:29;11.63;;;10.65;;
21886;SDS011;11108;49.988;8.182;2022-08-19T00:07:54;11.60;;;10.65;;
21886;SDS011;11108;49.988;8.182;2022-08-19T00:10:19;11.80;;;10.73;;
21886;SDS011;11108;49.988;8.182;2022-08-19T00:12:44;11.52;;;10.60;;
21886;SDS011;11108;49.988;8.182;2022-08-19T00:15:11;11.48;;;10.57;;
21886;SDS011;11108;49.988;8.182;2022-08-19T00:17:41;11.00;;;10.10;;
21886;SDS011;11108;49.988;8.182;2022-08-19T00:20:07;12.00;;;11.00;;
21886;SDS011;11108;49.988;8.182;2022-08-19T00:22:33;11.90;;;10.90;;
21886;SDS011;11108;49.988;8.182;2022-08-19T00:24:58;10.90;;;9.90;;
21886;SDS011;11108;49.988;8.182;2022-08-19T00:27:23;11.68;;;10.65;;
21886;SDS011;11108;49.988;8.182;2022-08-19T00:29:48;11.85;;;10.85;;
21886;SDS011;11108;49.988;8.182;2022-08-19T00:32:14;10.98;;;10.07;;
21886;SDS011;11108;49.988;8.182;2022-08-19T00:34:39;11.82;;;10.85;;
21886;SDS011;11108;49.988;8.182;2022-08-19T00:37:04;10.88;;;10.07;;
21886;SDS011;11108;49.988;8.182;2022-08-19T00:39:29;11.13;;;10.13;;
21886;SDS011;11108;49.988;8.182;2022-08-19T00:41:55;11.60;;;10.50;;
21886;SDS011;11108;49.988;8.182;2022-08-19T00:44:23;11.13;;;10.23;;
21886;SDS011;11108;49.988;8.182;2022-08-19T00:46:49;11.93;;;10.90;;
21886;SDS011;11108;49.988;8.182;2022-08-19T00:49:57;11.48;;;10.48;;
21886;SDS011;11108;49.988;8.182;2022-08-19T00:52:11;11.27;;;10.23;;
21886;SDS011;11108;49.988;8.182;2022-08-19T00:54:37;11.43;;;10.43;;
21886;SDS011;11108;49.988;8.182;2022-08-19T00:57:04;11.38;;;10.43;;
21886;SDS011;11108;49.988;8.182;2022-08-19T00:59:31;11.47;;;10.50;;
21886;SDS011;11108;49.988;8.182;2022-08-19T01:01:56;11.45;;;10.55;;
21886;SDS011;11108;49.988;8.182;2022-08-19T01:04:21;12.10;;;11.10;;
21886;SDS011;11108;49.988;8.182;2022-08-19T01:06:46;11.45;;;10.45;;
21886;SDS011;11108;49.988;8.182;2022-08-19T01:09:12;12.18;;;11.18;;
21886;SDS011;11108;49.988;8.182;2022-08-19T01:11:38;11.55;;;10.55;;
21886;SDS011;11108;49.988;8.182;2022-08-19T01:14:04;11.30;;;10.40;;
21886;SDS011;11108;49.988;8.182;2022-08-19T01:16:30;11.63;;;10.52;;
21886;SDS011;11108;49.988;8.182;2022-08-19T01:18:56;12.13;;;11.02;;
21886;SDS011;11108;49.988;8.182;2022-08-19T01:23:53;11.20;;;10.23;;
21886;SDS011;11108;49.988;8.182;2022-08-19T01:26:20;12.50;;;11.40;;
21886;SDS011;11108;49.988;8.182;2022-08-19T01:28:46;16.75;;;15.15;;
21886;SDS011;11108;49.988;8.182;2022-08-19T01:31:13;16.63;;;15.07;;
21886;SDS011;11108;49.988;8.182;2022-08-19T01:33:39;15.43;;;14.13;;
21886;SDS011;11108;49.988;8.182;2022-08-19T01:36:12;17.83;;;16.23;;
21886;SDS011;11108;49.988;8.182;2022-08-19T01:38:39;17.60;;;15.93;;
21886;SDS011;11108;49.988;8.182;2022-08-19T01:41:04;17.73;;;16.02;;
21886;SDS011;11108;49.988;8.182;2022-08-19T01:43:30;18.07;;;16.37;;
21886;SDS011;11108;49.988;8.182;2022-08-19T01:45:56;18.53;;;16.87;;
21886;SDS011;11108;49.988;8.182;2022-08-19T01:48:21;17.57;;;15.87;;
21886;SDS011;11108;49.988;8.182;2022-08-19T01:50:47;17.05;;;15.45;;
21886;SDS011;11108;49.988;8.182;2022-08-19T01:53:13;16.97;;;15.47;;
21886;SDS011;11108;49.988;8.182;2022-08-19T01:55:40;18.37;;;16.57;;
21886;SDS011;11108;49.988;8.182;2022-08-19T01:58:06;17.60;;;15.90;;
21886;SDS011;11108;49.988;8.182;2022-08-19T02:00:32;17.17;;;15.63;;
21886;SDS011;11108;49.988;8.182;2022-08-19T02:02:58;18.17;;;16.47;;
21886;SDS011;11108;49.988;8.182;2022-08-19T02:05:23;17.00;;;15.50;;
21886;SDS011;11108;49.988;8.182;2022-08-19T02:07:49;16.00;;;14.57;;
21886;SDS011;11108;49.988;8.182;2022-08-19T02:10:16;16.00;;;14.33;;
21886;SDS011;11108;49.988;8.182;2022-08-19T02:12:42;15.30;;;13.90;;
21886;SDS011;11108;49.988;8.182;2022-08-19T02:15:07;15.23;;;13.93;;
21886;SDS011;11108;49.988;8.182;2022-08-19T02:17:32;15.63;;;14.23;;
21886;SDS011;11108;49.988;8.182;2022-08-19T02:19:58;15.13;;;13.63;;
21886;SDS011;11108;49.988;8.182;2022-08-19T02:22:24;14.90;;;13.40;;
21886;SDS011;11108;49.988;8.182;2022-08-19T02:24:50;14.47;;;13.23;;
21886;SDS011;11108;49.988;8.182;2022-08-19T02:27:16;14.33;;;13.13;;
21886;SDS011;11108;49.988;8.182;2022-08-19T02:29:41;13.73;;;12.53;;
21886;SDS011;11108;49.988;8.182;2022-08-19T02:32:07;14.17;;;12.97;;
21886;SDS011;11108;49.988;8.182;2022-08-19T02:34:32;13.80;;;12.50;;
21886;SDS011;11108;49.988;8.182;2022-08-19T02:36:57;13.87;;;12.57;;
21886;SDS011;11108;49.988;8.182;2022-08-19T02:39:22;14.27;;;12.77;;
21886;SDS011;11108;49.988;8.182;2022-08-19T02:41:48;13.40;;;12.10;;
21886;SDS011;11108;49.988;8.182;2022-08-19T02:44:14;13.23;;;12.03;;
21886;SDS011;11108;49.988;8.182;2022-08-19T02:46:39;13.33;;;12.13;;
21886;SDS011;11108;49.988;8.182;2022-08-19T02:49:05;13.60;;;12.40;;
21886;SDS011;11108;49.988;8.182;2022-08-19T02:51:37;13.10;;;11.90;;
21886;SDS011;11108;49.988;8.182;2022-08-19T02:54:03;13.13;;;12.13;;
21886;SDS011;11108;49.988;8.182;2022-08-19T02:56:29;12.73;;;11.53;;
21886;SDS011;11108;49.988;8.182;2022-08-19T02:58:56;12.80;;;11.60;;
21886;SDS011;11108;49.988;8.182;2022-08-19T03:03:46;12.43;;;11.37;;
21886;SDS011;11108;49.988;8.182;2022-08-19T03:06:12;12.00;;;11.10;;
21886;SDS011;11108;49.988;8.182;2022-08-19T03:08:39;12.43;;;11.23;;
21886;SDS011;11108;49.988;8.182;2022-08-19T03:11:04;12.07;;;10.97;;
21886;SDS011;11108;49.988;8.182;2022-08-19T03:13:30;12.17;;;11.07;;
21886;SDS011;11108;49.988;8.182;2022-08-19T03:15:55;12.80;;;11.70;;
21886;SDS011;11108;49.988;8.182;2022-08-19T03:18:20;12.17;;;11.07;;
21886;SDS011;11108;49.988;8.182;2022-08-19T03:20:47;12.33;;;11.33;;
21886;SDS011;11108;49.988;8.182;2022-08-19T03:23:13;12.67;;;11.37;;
21886;SDS011;11108;49.988;8.182;2022-08-19T03:25:39;12.00;;;11.00;;
21886;SDS011;11108;49.988;8.182;2022-08-19T03:28:05;13.20;;;11.83;;
21886;SDS011;11108;49.988;8.182;2022-08-19T03:30:32;10.83;;;9.93;;
21886;SDS011;11108;49.988;8.182;2022-08-19T03:32:57;11.97;;;10.93;;
21886;SDS011;11108;49.988;8.182;2022-08-19T03:35:22;12.43;;;11.23;;
21886;SDS011;11108;49.988;8.182;2022-08-19T03:37:47;12.73;;;11.53;;
21886;SDS011;11108;49.988;8.182;2022-08-19T03:40:13;11.67;;;10.57;;
21886;SDS011;11108;49.988;8.182;2022-08-19T03:42:38;12.47;;;11.37;;
21886;SDS011;11108;49.988;8.182;2022-08-19T03:45:04;12.80;;;11.80;;
21886;SDS011;11108;49.988;8.182;2022-08-19T03:47:29;11.87;;;10.87;;
21886;SDS011;11108;49.988;8.182;2022-08-19T03:49:55;12.23;;;11.20;;
21886;SDS011;11108;49.988;8.182;2022-08-19T03:52:20;12.80;;;11.60;;
21886;SDS011;11108;49.988;8.182;2022-08-19T03:54:45;12.30;;;11.20;;
21886;SDS011;11108;49.988;8.182;2022-08-19T03:57:11;12.67;;;11.57;;
21886;SDS011;11108;49.988;8.182;2022-08-19T03:59:37;12.17;;;11.07;;
21886;SDS011;11108;49.988;8.182;2022-08-19T04:02:03;12.63;;;11.57;;
21886;SDS011;11108;49.988;8.182;2022-08-19T04:04:32;12.47;;;11.40;;
21886;SDS011;11108;49.988;8.182;2022-08-19T04:06:57;12.40;;;11.40;;
21886;SDS011;11108;49.988;8.182;2022-08-19T04:09:22;13.40;;;12.10;;
21886;SDS011;11108;49.988;8.182;2022-08-19T04:11:52;12.73;;;11.43;;
21886;SDS011;11108;49.988;8.182;2022-08-19T04:14:20;13.00;;;11.90;;
21886;SDS011;11108;49.988;8.182;2022-08-19T04:16:46;12.30;;;11.30;;
21886;SDS011;11108;49.988;8.182;2022-08-19T04:19:12;12.90;;;11.70;;
21886;SDS011;11108;49.988;8.182;2022-08-19T04:21:38;12.73;;;11.63;;
21886;SDS011;11108;49.988;8.182;2022-08-19T04:24:03;11.40;;;10.50;;
21886;SDS011;11108;49.988;8.182;2022-08-19T04:26:30;12.30;;;11.10;;
21886;SDS011;11108;49.988;8.182;2022-08-19T04:29:00;11.10;;;10.17;;
21886;SDS011;11108;49.988;8.182;2022-08-19T04:31:26;12.17;;;11.07;;
21886;SDS011;11108;49.988;8.182;2022-08-19T04:33:56;11.80;;;10.80;;
21886;SDS011;11108;49.988;8.182;2022-08-19T04:36:23;11.27;;;10.23;;
21886;SDS011;11108;49.988;8.182;2022-08-19T04:38:49;11.20;;;10.23;;
21886;SDS011;11108;49.988;8.182;2022-08-19T04:41:14;11.77;;;10.73;;
21886;SDS011;11108;49.988;8.182;2022-08-19T04:43:58;12.20;;;11.13;;
21886;SDS011;11108;49.988;8.182;2022-08-19T04:46:23;12.10;;;11.10;;
21886;SDS011;11108;49.988;8.182;2022-08-19T04:48:49;12.73;;;11.73;;
21886;SDS011;11108;49.988;8.182;2022-08-19T04:51:14;13.17;;;12.00;;
21886;SDS011;11108;49.988;8.182;2022-08-19T04:53:40;13.03;;;11.90;;
21886;SDS011;11108;49.988;8.182;2022-08-19T04:56:10;12.90;;;11.80;;
21886;SDS011;11108;49.988;8.182;2022-08-19T04:58:36;12.73;;;11.50;;
21886;SDS011;11108;49.988;8.182;2022-08-19T05:01:02;13.07;;;11.83;;
21886;SDS011;11108;49.988;8.182;2022-08-19T05:03:28;13.17;;;11.90;;
21886;SDS011;11108;49.988;8.182;2022-08-19T05:05:56;12.93;;;11.73;;
21886;SDS011;11108;49.988;8.182;2022-08-19T05:08:21;12.77;;;11.70;;
21886;SDS011;11108;49.988;8.182;2022-08-19T05:10:50;13.07;;;11.77;;
21886;SDS011;11108;49.988;8.182;2022-08-19T05:13:17;13.50;;;12.27;;
21886;SDS011;11108;49.988;8.182;2022-08-19T05:15:43;13.90;;;12.70;;
21886;SDS011;11108;49.988;8.182;2022-08-19T05:18:08;13.83;;;12.53;;
21886;SDS011;11108;49.988;8.182;2022-08-19T05:20:52;14.00;;;12.70;;
21886;SDS011;11108;49.988;8.182;2022-08-19T05:23:36;13.33;;;12.13;;
21886;SDS011;11108;49.988;8.182;2022-08-19T05:26:01;15.13;;;13.73;;
21886;SDS011;11108;49.988;8.182;2022-08-19T05:28:26;15.00;;;13.60;;
21886;SDS011;11108;49.988;8.182;2022-08-19T05:30:52;14.73;;;13.43;;
21886;SDS011;11108;49.988;8.182;2022-08-19T05:33:20;15.87;;;14.37;;
21886;SDS011;11108;49.988;8.182;2022-08-19T05:35:45;14.70;;;13.40;;
21886;SDS011;11108;49.988;8.182;2022-08-19T05:38:11;15.80;;;14.33;;
21886;SDS011;11108;49.988;8.182;2022-08-19T05:40:37;14.80;;;13.50;;
21886;SDS011;11108;49.988;8.182;2022-08-19T05:43:04;14.80;;;13.47;;
21886;SDS011;11108;49.988;8.182;2022-08-19T05:45:30;15.30;;;13.80;;
21886;SDS011;11108;49.988;8.182;2022-08-19T05:47:55;14.17;;;12.80;;
21886;SDS011;11108;49.988;8.182;2022-08-19T05:50:20;13.60;;;12.40;;
21886;SDS011;11108;49.988;8.182;2022-08-19T05:52:45;13.73;;;12.53;;
21886;SDS011;11108;49.988;8.182;2022-08-19T05:55:11;13.37;;;12.07;;
21886;SDS011;11108;49.988;8.182;2022-08-19T05:57:36;13.07;;;11.93;;
21886;SDS011;11108;49.988;8.182;2022-08-19T06:00:02;12.67;;;11.47;;
21886;SDS011;11108;49.988;8.182;2022-08-19T06:02:32;13.20;;;12.03;;
21886;SDS011;11108;49.988;8.182;2022-08-19T06:04:58;14.50;;;13.13;;
21886;SDS011;11108;49.988;8.182;2022-08-19T06:07:23;12.60;;;11.30;;
21886;SDS011;11108;49.988;8.182;2022-08-19T06:09:48;11.57;;;10.67;;
21886;SDS011;11108;49.988;8.182;2022-08-19T06:12:13;11.23;;;10.33;;
21886;SDS011;11108;49.988;8.182;2022-08-19T06:14:38;13.40;;;12.13;;
21886;SDS011;11108;49.988;8.182;2022-08-19T06:17:06;14.37;;;12.97;;
21886;SDS011;11108;49.988;8.182;2022-08-19T06:19:31;15.70;;;14.20;;
21886;SDS011;11108;49.988;8.182;2022-08-19T06:21:57;14.47;;;13.17;;
21886;SDS011;11108;49.988;8.182;2022-08-19T06:24:24;11.97;;;10.97;;
21886;SDS011;11108;49.988;8.182;2022-08-19T06:26:50;11.20;;;10.30;;
21886;SDS011;11108;49.988;8.182;2022-08-19T06:29:18;13.07;;;11.80;;
21886;SDS011;11108;49.988;8.182;2022-08-19T06:31:44;11.50;;;10.50;;
21886;SDS011;11108;49.988;8.182;2022-08-19T06:34:10;11.60;;;10.70;;
21886;SDS011;11108;49.988;8.182;2022-08-19T06:36:36;11.60;;;10.63;;
21886;SDS011;11108;49.988;8.182;2022-08-19T06:39:03;11.53;;;10.53;;
21886;SDS011;11108;49.988;8.182;2022-08-19T06:41:29;10.93;;;9.93;;
21886;SDS011;11108;49.988;8.182;2022-08-19T06:43:55;12.43;;;11.33;;
21886;SDS011;11108;49.988;8.182;2022-08-19T06:46:20;11.37;;;10.37;;
21886;SDS011;11108;49.988;8.182;2022-08-19T06:48:46;12.97;;;11.87;;
21886;SDS011;11108;49.988;8.182;2022-08-19T06:51:16;12.07;;;10.97;;
21886;SDS011;11108;49.988;8.182;2022-08-19T06:53:43;12.27;;;11.17;;
21886;SDS011;11108;49.988;8.182;2022-08-19T06:56:11;14.17;;;12.87;;
21886;SDS011;11108;49.988;8.182;2022-08-19T06:58:37;11.27;;;10.40;;
21886;SDS011;11108;49.988;8.182;2022-08-19T07:01:03;10.77;;;9.77;;
21886;SDS011;11108;49.988;8.182;2022-08-19T07:03:30;11.17;;;10.17;;
21886;SDS011;11108;49.988;8.182;2022-08-19T07:05:56;9.97;;;9.17;;
21886;SDS011;11108;49.988;8.182;2022-08-19T07:08:21;10.60;;;9.70;;
21886;SDS011;11108;49.988;8.182;2022-08-19T07:10:46;10.80;;;9.90;;
21886;SDS011;11108;49.988;8.182;2022-08-19T07:13:12;12.00;;;10.30;;
21886;SDS011;11108;49.988;8.182;2022-08-19T07:15:38;11.33;;;10.10;;
21886;SDS011;11108;49.988;8.182;2022-08-19T07:18:03;11.80;;;10.73;;
21886;SDS011;11108;49.988;8.182;2022-08-19T07:20:28;11.13;;;10.23;;
21886;SDS011;11108;49.988;8.182;2022-08-19T07:22:53;11.30;;;10.37;;
21886;SDS011;11108;49.988;8.182;2022-08-19T07:25:18;11.47;;;10.37;;
21886;SDS011;11108;49.988;8.182;2022-08-19T07:27:45;10.60;;;9.70;;
21886;SDS011;11108;49.988;8.182;2022-08-19T07:30:13;11.20;;;10.10;;
21886;SDS011;11108;49.988;8.182;2022-08-19T07:32:39;10.33;;;9.33;;
21886;SDS011;11108;49.988;8.182;2022-08-19T07:35:04;10.87;;;9.87;;
21886;SDS011;11108;49.988;8.182;2022-08-19T07:37:31;12.07;;;10.87;;
21886;SDS011;11108;49.988;8.182;2022-08-19T07:39:56;11.43;;;10.33;;
21886;SDS011;11108;49.988;8.182;2022-08-19T07:42:21;11.37;;;10.23;;
21886;SDS011;11108;49.988;8.182;2022-08-19T07:44:46;9.70;;;8.90;;
21886;SDS011;11108;49.988;8.182;2022-08-19T07:47:12;9.07;;;8.27;;
21886;SDS011;11108;49.988;8.182;2022-08-19T07:49:37;10.03;;;9.00;;
21886;SDS011;11108;49.988;8.182;2022-08-19T07:52:05;8.20;;;7.40;;
21886;SDS011;11108;49.988;8.182;2022-08-19T07:54:32;9.73;;;8.83;;
21886;SDS011;11108;49.988;8.182;2022-08-19T07:56:59;11.40;;;10.30;;
21886;SDS011;11108;49.988;8.182;2022-08-19T07:59:25;12.20;;;11.00;;
21886;SDS011;11108;49.988;8.182;2022-08-19T08:01:50;10.70;;;9.60;;
21886;SDS011;11108;49.988;8.182;2022-08-19T08:04:16;8.63;;;7.90;;
21886;SDS011;11108;49.988;8.182;2022-08-19T08:07:00;8.60;;;7.77;;
21886;SDS011;11108;49.988;8.182;2022-08-19T08:09:45;8.27;;;7.57;;
21886;SDS011;11108;49.988;8.182;2022-08-19T08:12:12;8.03;;;7.33;;
21886;SDS011;11108;49.988;8.182;2022-08-19T08:17:04;12.10;;;10.90;;
21886;SDS011;11108;49.988;8.182;2022-08-19T08:19:31;12.03;;;10.43;;
21886;SDS011;11108;49.988;8.182;2022-08-19T08:21:57;11.27;;;9.97;;
21886;SDS011;11108;49.988;8.182;2022-08-19T08:24:23;12.77;;;11.47;;
21886;SDS011;11108;49.988;8.182;2022-08-19T08:26:49;11.63;;;10.40;;
21886;SDS011;11108;49.988;8.182;2022-08-19T08:29:14;11.17;;;10.17;;
21886;SDS011;11108;49.988;8.182;2022-08-19T08:31:41;11.60;;;10.57;;
21886;SDS011;11108;49.988;8.182;2022-08-19T08:34:07;12.90;;;11.60;;
21886;SDS011;11108;49.988;8.182;2022-08-19T08:36:32;13.07;;;11.73;;
21886;SDS011;11108;49.988;8.182;2022-08-19T08:39:03;13.27;;;11.53;;
21886;SDS011;11108;49.988;8.182;2022-08-19T08:41:44;13.87;;;12.57;;
21886;SDS011;11108;49.988;8.182;2022-08-19T08:44:16;11.80;;;10.70;;
21886;SDS011;11108;49.988;8.182;2022-08-19T08:46:45;10.05;;;8.80;;
21886;SDS011;11108;49.988;8.182;2022-08-19T08:52:00;13.53;;;12.13;;
21886;SDS011;11108;49.988;8.182;2022-08-19T08:55:03;11.60;;;10.60;;
21886;SDS011;11108;49.988;8.182;2022-08-19T08:57:20;13.80;;;12.47;;
21886;SDS011;11108;49.988;8.182;2022-08-19T08:59:47;10.40;;;9.37;;
21886;SDS011;11108;49.988;8.182;2022-08-19T09:02:17;11.17;;;9.30;;
21886;SDS011;11108;49.988;8.182;2022-08-19T09:04:42;10.07;;;9.00;;
21886;SDS011;11108;49.988;8.182;2022-08-19T09:09:49;10.50;;;9.50;;
21886;SDS011;11108;49.988;8.182;2022-08-19T09:17:19;8.17;;;7.57;;
21886;SDS011;11108;49.988;8.182;2022-08-19T09:19:56;8.50;;;7.82;;
21886;SDS011;11108;49.988;8.182;2022-08-19T09:22:22;10.00;;;9.10;;
21886;SDS011;11108;49.988;8.182;2022-08-19T09:24:48;8.70;;;7.83;;
21886;SDS011;11108;49.988;8.182;2022-08-19T09:27:13;9.57;;;8.83;;
21886;SDS011;11108;49.988;8.182;2022-08-19T09:29:39;11.00;;;9.90;;
21886;SDS011;11108;49.988;8.182;2022-08-19T09:32:04;13.60;;;12.43;;
21886;SDS011;11108;49.988;8.182;2022-08-19T09:34:29;13.50;;;12.30;;
21886;SDS011;11108;49.988;8.182;2022-08-19T09:36:54;12.70;;;11.80;;
21886;SDS011;11108;49.988;8.182;2022-08-19T09:39:23;13.13;;;12.13;;
21886;SDS011;11108;49.988;8.182;2022-08-19T09:41:48;13.50;;;12.27;;
21886;SDS011;11108;49.988;8.182;2022-08-19T09:44:14;13.17;;;11.97;;
21886;SDS011;11108;49.988;8.182;2022-08-19T09:46:40;13.00;;;11.80;;
21886;SDS011;11108;49.988;8.182;2022-08-19T09:49:05;13.20;;;12.07;;
21886;SDS011;11108;49.988;8.182;2022-08-19T09:51:31;13.43;;;12.33;;
21886;SDS011;11108;49.988;8.182;2022-08-19T09:53:58;13.07;;;12.07;;
21886;SDS011;11108;49.988;8.182;2022-08-19T09:56:23;12.23;;;11.23;;
21886;SDS011;11108;49.988;8.182;2022-08-19T09:58:49;11.57;;;10.57;;
21886;SDS011;11108;49.988;8.182;2022-08-19T10:01:18;10.73;;;9.83;;
21886;SDS011;11108;49.988;8.182;2022-08-19T10:03:46;11.53;;;10.53;;
21886;SDS011;11108;49.988;8.182;2022-08-19T10:06:11;12.07;;;11.03;;
21886;SDS011;11108;49.988;8.182;2022-08-19T10:08:36;12.17;;;11.17;;
21886;SDS011;11108;49.988;8.182;2022-08-19T10:11:02;10.33;;;9.53;;
21886;SDS011;11108;49.988;8.182;2022-08-19T10:13:29;10.73;;;9.90;;
21886;SDS011;11108;49.988;8.182;2022-08-19T10:15:55;10.75;;;9.75;;
21886;SDS011;11108;49.988;8.182;2022-08-19T10:18:22;10.20;;;9.20;;
21886;SDS011;11108;49.988;8.182;2022-08-19T10:20:48;14.27;;;9.75;;
21886;SDS011;11108;49.988;8.182;2022-08-19T10:23:14;13.93;;;9.82;;
21886;SDS011;11108;49.988;8.182;2022-08-19T10:25:40;10.90;;;9.87;;
21886;SDS011;11108;49.988;8.182;2022-08-19T10:28:05;11.27;;;10.13;;
21886;SDS011;11108;49.988;8.182;2022-08-19T10:30:31;11.90;;;10.57;;
21886;SDS011;11108;49.988;8.182;2022-08-19T10:32:56;14.27;;;11.63;;
21886;SDS011;11108;49.988;8.182;2022-08-19T10:35:21;13.35;;;12.00;;
21886;SDS011;11108;49.988;8.182;2022-08-19T10:37:46;14.17;;;12.47;;
21886;SDS011;11108;49.988;8.182;2022-08-19T10:40:12;14.27;;;12.77;;
21886;SDS011;11108;49.988;8.182;2022-08-19T10:42:37;14.10;;;12.60;;
21886;SDS011;11108;49.988;8.182;2022-08-19T10:45:03;14.13;;;12.57;;
21886;SDS011;11108;49.988;8.182;2022-08-19T10:47:30;14.97;;;13.47;;
21886;SDS011;11108;49.988;8.182;2022-08-19T10:49:56;14.73;;;13.23;;
21886;SDS011;11108;49.988;8.182;2022-08-19T10:52:40;14.07;;;12.33;;
21886;SDS011;11108;49.988;8.182;2022-08-19T10:55:06;14.57;;;12.40;;
21886;SDS011;11108;49.988;8.182;2022-08-19T10:57:50;13.13;;;11.60;;
21886;SDS011;11108;49.988;8.182;2022-08-19T11:00:16;12.33;;;11.03;;
21886;SDS011;11108;49.988;8.182;2022-08-19T11:02:42;13.17;;;11.83;;
21886;SDS011;11108;49.988;8.182;2022-08-19T11:05:08;12.83;;;11.13;;
21886;SDS011;11108;49.988;8.182;2022-08-19T11:07:36;11.47;;;10.27;;
21886;SDS011;11108;49.988;8.182;2022-08-19T11:10:02;11.97;;;10.87;;
21886;SDS011;11108;49.988;8.182;2022-08-19T11:12:28;11.57;;;10.43;;
21886;SDS011;11108;49.988;8.182;2022-08-19T11:14:53;10.83;;;9.70;;
21886;SDS011;11108;49.988;8.182;2022-08-19T11:17:19;10.83;;;9.70;;
21886;SDS011;11108;49.988;8.182;2022-08-19T11:19:45;11.07;;;10.03;;
21886;SDS011;11108;49.988;8.182;2022-08-19T11:22:11;9.87;;;9.07;;
21886;SDS011;11108;49.988;8.182;2022-08-19T11:24:37;10.23;;;9.33;;
21886;SDS011;11108;49.988;8.182;2022-08-19T11:27:06;9.80;;;8.90;;
21886;SDS011;11108;49.988;8.182;2022-08-19T11:29:32;9.23;;;8.43;;
21886;SDS011;11108;49.988;8.182;2022-08-19T11:31:59;9.70;;;8.90;;
21886;SDS011;11108;49.988;8.182;2022-08-19T11:34:26;9.90;;;9.00;;
21886;SDS011;11108;49.988;8.182;2022-08-19T11:36:53;10.23;;;9.07;;
21886;SDS011;11108;49.988;8.182;2022-08-19T11:39:22;9.70;;;8.73;;
21886;SDS011;11108;49.988;8.182;2022-08-19T11:41:47;8.90;;;8.07;;
21886;SDS011;11108;49.988;8.182;2022-08-19T11:44:12;9.10;;;8.30;;
21886;SDS011;11108;49.988;8.182;2022-08-19T11:46:39;8.73;;;7.93;;
21886;SDS011;11108;49.988;8.182;2022-08-19T11:49:05;8.60;;;7.95;;
21886;SDS011;11108;49.988;8.182;2022-08-19T11:51:32;8.35;;;7.65;;
21886;SDS011;11108;49.988;8.182;2022-08-19T11:53:58;9.13;;;8.32;;
21886;SDS011;11108;49.988;8.182;2022-08-19T11:56:24;8.75;;;7.97;;
21886;SDS011;11108;49.988;8.182;2022-08-19T11:58:50;8.60;;;7.90;;
21886;SDS011;11108;49.988;8.182;2022-08-19T12:01:16;8.40;;;7.70;;
21886;SDS011;11108;49.988;8.182;2022-08-19T12:03:42;8.95;;;8.25;;
21886;SDS011;11108;49.988;8.182;2022-08-19T12:06:09;8.30;;;7.70;;
21886;SDS011;11108;49.988;8.182;2022-08-19T12:08:35;8.23;;;7.53;;
21886;SDS011;11108;49.988;8.182;2022-08-19T12:11:00;8.32;;;7.72;;
21886;SDS011;11108;49.988;8.182;2022-08-19T12:13:26;9.40;;;7.73;;
21886;SDS011;11108;49.988;8.182;2022-08-19T12:15:53;8.33;;;7.73;;
21886;SDS011;11108;49.988;8.182;2022-08-19T12:18:18;9.03;;;8.37;;
21886;SDS011;11108;49.988;8.182;2022-08-19T12:20:43;9.10;;;8.40;;
21886;SDS011;11108;49.988;8.182;2022-08-19T12:23:10;8.32;;;7.68;;
21886;SDS011;11108;49.988;8.182;2022-08-19T12:25:36;8.88;;;8.18;;
21886;SDS011;11108;49.988;8.182;2022-08-19T12:28:02;8.75;;;8.07;;
21886;SDS011;11108;49.988;8.182;2022-08-19T12:30:28;8.37;;;7.77;;
21886;SDS011;11108;49.988;8.182;2022-08-19T12:32:53;8.98;;;8.38;;
21886;SDS011;11108;49.988;8.182;2022-08-19T12:35:18;8.10;;;7.40;;
21886;SDS011;11108;49.988;8.182;2022-08-19T12:37:45;8.33;;;7.67;;
21886;SDS011;11108;49.988;8.182;2022-08-19T12:40:11;8.20;;;7.60;;
21886;SDS011;11108;49.988;8.182;2022-08-19T12:42:39;8.25;;;7.63;;
21886;SDS011;11108;49.988;8.182;2022-08-19T12:45:08;8.52;;;7.82;;
21886;SDS011;11108;49.988;8.182;2022-08-19T12:47:34;8.63;;;7.93;;
21886;SDS011;11108;49.988;8.182;2022-08-19T12:49:59;8.23;;;7.53;;
21886;SDS011;11108;49.988;8.182;2022-08-19T12:52:25;8.20;;;7.60;;
21886;SDS011;11108;49.988;8.182;2022-08-19T12:54:52;7.60;;;7.00;;
21886;SDS011;11108;49.988;8.182;2022-08-19T12:57:18;7.60;;;7.00;;
21886;SDS011;11108;49.988;8.182;2022-08-19T12:59:43;7.67;;;7.17;;
21886;SDS011;11108;49.988;8.182;2022-08-19T13:02:08;7.53;;;7.00;;
21886;SDS011;11108;49.988;8.182;2022-08-19T13:04:34;7.03;;;6.47;;
21886;SDS011;11108;49.988;8.182;2022-08-19T13:07:05;6.57;;;6.10;;
21886;SDS011;11108;49.988;8.182;2022-08-19T13:09:31;7.57;;;6.97;;
21886;SDS011;11108;49.988;8.182;2022-08-19T13:11:56;7.10;;;6.68;;
21886;SDS011;11108;49.988;8.182;2022-08-19T13:14:21;6.90;;;6.40;;
21886;SDS011;11108;49.988;8.182;2022-08-19T13:16:46;6.97;;;6.47;;
21886;SDS011;11108;49.988;8.182;2022-08-19T13:19:12;7.38;;;6.68;;
21886;SDS011;11108;49.988;8.182;2022-08-19T13:21:38;6.65;;;6.18;;
21886;SDS011;11108;49.988;8.182;2022-08-19T13:24:03;6.72;;;6.10;;
21886;SDS011;11108;49.988;8.182;2022-08-19T13:26:28;6.93;;;6.32;;
21886;SDS011;11108;49.988;8.182;2022-08-19T13:28:54;6.75;;;6.25;;
21886;SDS011;11108;49.988;8.182;2022-08-19T13:31:39;5.97;;;5.57;;
21886;SDS011;11108;49.988;8.182;2022-08-19T13:34:28;6.07;;;5.63;;
21886;SDS011;11108;49.988;8.182;2022-08-19T13:36:54;6.18;;;5.78;;
21886;SDS011;11108;49.988;8.182;2022-08-19T13:39:20;6.15;;;5.75;;
21886;SDS011;11108;49.988;8.182;2022-08-19T13:41:45;5.75;;;5.35;;
21886;SDS011;11108;49.988;8.182;2022-08-19T13:44:15;5.55;;;5.15;;
21886;SDS011;11108;49.988;8.182;2022-08-19T13:46:43;5.32;;;5.00;;
21886;SDS011;11108;49.988;8.182;2022-08-19T13:49:09;5.03;;;4.73;;
21886;SDS011;11108;49.988;8.182;2022-08-19T13:51:34;5.37;;;4.97;;
21886;SDS011;11108;49.988;8.182;2022-08-19T13:53:59;5.43;;;5.10;;
21886;SDS011;11108;49.988;8.182;2022-08-19T13:56:25;4.93;;;4.63;;
21886;SDS011;11108;49.988;8.182;2022-08-19T13:58:50;4.83;;;4.53;;
21886;SDS011;11108;49.988;8.182;2022-08-19T14:01:19;4.68;;;4.38;;
21886;SDS011;11108;49.988;8.182;2022-08-19T14:03:45;5.20;;;4.80;;
21886;SDS011;11108;49.988;8.182;2022-08-19T14:06:10;5.30;;;4.90;;
21886;SDS011;11108;49.988;8.182;2022-08-19T14:08:35;5.60;;;5.20;;
21886;SDS011;11108;49.988;8.182;2022-08-19T14:11:04;4.60;;;4.30;;
21886;SDS011;11108;49.988;8.182;2022-08-19T14:13:29;4.80;;;4.50;;
21886;SDS011;11108;49.988;8.182;2022-08-19T14:15:55;4.63;;;4.20;;
21886;SDS011;11108;49.988;8.182;2022-08-19T14:18:21;4.20;;;4.00;;
21886;SDS011;11108;49.988;8.182;2022-08-19T14:20:46;4.93;;;4.63;;
21886;SDS011;11108;49.988;8.182;2022-08-19T14:23:11;4.80;;;4.40;;
21886;SDS011;11108;49.988;8.182;2022-08-19T14:25:38;6.13;;;4.17;;
21886;SDS011;11108;49.988;8.182;2022-08-19T14:28:03;4.90;;;4.60;;
21886;SDS011;11108;49.988;8.182;2022-08-19T14:30:30;5.70;;;5.30;;
21886;SDS011;11108;49.988;8.182;2022-08-19T14:32:57;4.68;;;4.38;;
21886;SDS011;11108;49.988;8.182;2022-08-19T14:35:23;4.90;;;4.50;;
21886;SDS011;11108;49.988;8.182;2022-08-19T14:37:48;4.83;;;4.53;;
21886;SDS011;11108;49.988;8.182;2022-08-19T14:40:16;5.53;;;5.13;;
21886;SDS011;11108;49.988;8.182;2022-08-19T14:42:42;5.20;;;4.80;;